| Pilot: | GLD1793 Tiago I. | Aircraft: | ATCCOM.ATC_NAME_BEECHCR | Distance: | 85NM |
| From: | TFFF | To: | TDCF | Duration: | 0.70 |
| Validation: | Valid | Tipo: | Charter | Tail Number: | PT-GLD |
| ZFW: | 4324 | Block Fuel/Init FOB | 125flight_details.php/99 | Flight Fuel | 125 |
| Passengers: | 5 | Cargo: | 0 | Alternate: | TFFF |
| Departure Time: | 1909 | Cruise Speed: | 198 | Flight Level: | FL500 |
| Flight Type: | IFR | Aircraft Type: | BE58 | Weight Unit: | Kg |
| Date: | 04/05/2026 | Comments: | GOLD ACARS | Network: | VATSIM |
| Crash: | No | Validator Comments: | Rating | 100 |
| ROUTE | EMOL2R EMOLA DCT |
| REMARKS | OPR/GOLD VIRTUAL AIRLINES PER/C RMK/FROM TFFF RMK/PIC GLD1793 |
| Crash | OK | Beacon Lights off with engine on | OK | Speed above 250KIAS below 10.000ft | OK |
| Landing Lights OFF below 10.000ft | OK | Landing Lights ON above 10.000ft | OK | Stall | OK |
| Overspeed | OK | Pause | OK | Refuel | OK |
| Slew | OK | Taxi Lights OFF during taxi | OK | Land Lights OFF during take off | OK |
| Landing Lights OFF during landing | OK | Landed in not planned airfield | OK | Taxi speed above 25 kt | OK |
| Incorrect QNH during take off | OK | Incorrect QNH during landing | OK |
| Wind: | 150º/7 kt | Heading: | 175 |
| VS: | -86 ft/min | IAS: | 88 kt |
| Gforce: | 0.9888 G | Bank: | 0.59 |
| Pitch | 3.75 | Flaps | 50 |
| Nav Lights | ON | Landing Lights | ON |
| Beacon Lights | ON | Strobe Lights | ON |
| DATE | EVENT | IAS | ALTITUDE |
|---|---|---|---|
| 2026-05-04 19:09:54 | GOLD ACARS VERSION 3.3.7.1 | 0 | 0 |
| 2026-05-04 19:09:54 | BOARDING | 0 | -14 |
| 2026-05-04 19:09:54 | FLAP 50% | 0 | -14 |
| 2026-05-04 19:13:57 | STB LIGHTS ON | 0 | -14 |
| 2026-05-04 19:13:59 | NAV LIGHTS ON | 0 | -14 |
| 2026-05-04 19:14:33 | STARTING ENGINE 1 | 0 | -14 |
| 2026-05-04 19:15:15 | STARTING ENGINE 2 | 0 | -14 |
| 2026-05-04 19:16:06 | TAXI LIGHTS ON | 0 | -14 |
| 2026-05-04 19:16:20 | TAXI TO THE RWY | 0 | -14 |
| 2026-05-04 19:17:55 | GEAR UP | 125 | 4 |
| 2026-05-04 19:17:59 | CLIMBING | 129 | 18 |
| 2026-05-04 19:17:59 | TAKE OFF TRANSPONDER NOT IN C MODE | 129 | 18 |
| 2026-05-04 19:18:01 | FLAP 0% | 132 | 40 |
| 2026-05-04 19:18:06 | AP ENGAGED | 139 | 143 |
| 2026-05-04 19:18:11 | CRUISE | 142 | 219 |
| 2026-05-04 19:18:24 | CLIMBING | 165 | 303 |
| 2026-05-04 19:21:29 | CRUISE | 170 | 2979 |
| 2026-05-04 19:43:38 | DESCEND | 99 | 2982 |
| 2026-05-04 19:44:51 | FLAP 50% | 131 | 2255 |
| 2026-05-04 19:44:58 | GEAR DOWN | 136 | 2187 |
| 2026-05-04 19:46:22 | AP DISENGAGED | 143 | 1290 |
| 2026-05-04 19:48:27 | LANDED AIRPORT [TDCF] | 88 | 36 |
| 2026-05-04 19:48:27 | LANDED - VS: -86 ft/min | 87 | 36 |
| 2026-05-04 19:48:40 | TAXI TO THE GATE | 26 | 36 |
| 2026-05-04 19:50:52 | AT THE GATE | 0 | 36 |
| 2026-05-04 19:51:30 | STOPPING ENGINE 1 | 0 | 36 |
| 2026-05-04 19:51:45 | STOPPING ENGINE 2 | 0 | 36 |
| 2026-05-04 19:51:47 | TAXI LIGHTS OFF | 0 | 36 |
| 2026-05-04 19:51:48 | LND LIGHTS OFF | 0 | 36 |
| 2026-05-04 19:51:55 | BCN LIGHTS OFF | 0 | 36 |
| 2026-05-04 19:51:55 | FLIGHT FINISHED | 0 | 36 |
| 2026-05-04 19:09:54 | GOLD ACARS VERSION 3.3.7.1 | 0 | 0 |
| 2026-05-04 19:09:54 | BOARDING | 0 | -14 |
| 2026-05-04 19:09:54 | FLAP 50% | 0 | -14 |
| 2026-05-04 19:13:57 | STB LIGHTS ON | 0 | -14 |
| 2026-05-04 19:13:59 | NAV LIGHTS ON | 0 | -14 |
| 2026-05-04 19:14:33 | STARTING ENGINE 1 | 0 | -14 |
| 2026-05-04 19:15:15 | STARTING ENGINE 2 | 0 | -14 |
| 2026-05-04 19:16:06 | TAXI LIGHTS ON | 0 | -14 |
| 2026-05-04 19:16:20 | TAXI TO THE RWY | 0 | -14 |
| 2026-05-04 19:17:55 | GEAR UP | 125 | 4 |
| 2026-05-04 19:17:59 | CLIMBING | 129 | 18 |
| 2026-05-04 19:17:59 | TAKE OFF TRANSPONDER NOT IN C MODE | 129 | 18 |
| 2026-05-04 19:18:01 | FLAP 0% | 132 | 40 |
| 2026-05-04 19:18:06 | AP ENGAGED | 139 | 143 |
| 2026-05-04 19:18:11 | CRUISE | 142 | 219 |
| 2026-05-04 19:18:24 | CLIMBING | 165 | 303 |
| 2026-05-04 19:21:29 | CRUISE | 170 | 2979 |
| 2026-05-04 19:43:38 | DESCEND | 99 | 2982 |
| 2026-05-04 19:44:51 | FLAP 50% | 131 | 2255 |
| 2026-05-04 19:44:58 | GEAR DOWN | 136 | 2187 |
| 2026-05-04 19:46:22 | AP DISENGAGED | 143 | 1290 |
| 2026-05-04 19:48:27 | LANDED AIRPORT [TDCF] | 88 | 36 |
| 2026-05-04 19:48:27 | LANDED - VS: -86 ft/min | 87 | 36 |
| 2026-05-04 19:48:40 | TAXI TO THE GATE | 26 | 36 |
| 2026-05-04 19:50:52 | AT THE GATE | 0 | 36 |
| 2026-05-04 19:51:30 | STOPPING ENGINE 1 | 0 | 36 |
| 2026-05-04 19:51:45 | STOPPING ENGINE 2 | 0 | 36 |
| 2026-05-04 19:51:47 | TAXI LIGHTS OFF | 0 | 36 |
| 2026-05-04 19:51:48 | LND LIGHTS OFF | 0 | 36 |
| 2026-05-04 19:51:55 | BCN LIGHTS OFF | 0 | 36 |
| 2026-05-04 19:51:55 | FLIGHT FINISHED | 0 | 36 |
| 2026-05-04 19:09:54 | GOLD ACARS VERSION 3.3.7.1 | 0 | 0 |
| 2026-05-04 19:09:54 | BOARDING | 0 | -14 |
| 2026-05-04 19:09:54 | FLAP 50% | 0 | -14 |
| 2026-05-04 19:13:57 | STB LIGHTS ON | 0 | -14 |
| 2026-05-04 19:13:59 | NAV LIGHTS ON | 0 | -14 |
| 2026-05-04 19:14:33 | STARTING ENGINE 1 | 0 | -14 |
| 2026-05-04 19:15:15 | STARTING ENGINE 2 | 0 | -14 |
| 2026-05-04 19:16:06 | TAXI LIGHTS ON | 0 | -14 |
| 2026-05-04 19:16:20 | TAXI TO THE RWY | 0 | -14 |
| 2026-05-04 19:17:55 | GEAR UP | 125 | 4 |
| 2026-05-04 19:17:59 | CLIMBING | 129 | 18 |
| 2026-05-04 19:17:59 | TAKE OFF TRANSPONDER NOT IN C MODE | 129 | 18 |
| 2026-05-04 19:18:01 | FLAP 0% | 132 | 40 |
| 2026-05-04 19:18:06 | AP ENGAGED | 139 | 143 |
| 2026-05-04 19:18:11 | CRUISE | 142 | 219 |
| 2026-05-04 19:18:24 | CLIMBING | 165 | 303 |
| 2026-05-04 19:21:29 | CRUISE | 170 | 2979 |
| 2026-05-04 19:43:38 | DESCEND | 99 | 2982 |
| 2026-05-04 19:44:51 | FLAP 50% | 131 | 2255 |
| 2026-05-04 19:44:58 | GEAR DOWN | 136 | 2187 |
| 2026-05-04 19:46:22 | AP DISENGAGED | 143 | 1290 |
| 2026-05-04 19:48:27 | LANDED AIRPORT [TDCF] | 88 | 36 |
| 2026-05-04 19:48:27 | LANDED - VS: -86 ft/min | 87 | 36 |
| 2026-05-04 19:48:40 | TAXI TO THE GATE | 26 | 36 |
| 2026-05-04 19:50:52 | AT THE GATE | 0 | 36 |
| 2026-05-04 19:51:30 | STOPPING ENGINE 1 | 0 | 36 |
| 2026-05-04 19:51:45 | STOPPING ENGINE 2 | 0 | 36 |
| 2026-05-04 19:51:47 | TAXI LIGHTS OFF | 0 | 36 |
| 2026-05-04 19:51:48 | LND LIGHTS OFF | 0 | 36 |
| 2026-05-04 19:51:55 | BCN LIGHTS OFF | 0 | 36 |
| 2026-05-04 19:51:55 | FLIGHT FINISHED | 0 | 36 |
| 2026-05-04 19:09:54 | GOLD ACARS VERSION 3.3.7.1 | 0 | 0 |
| 2026-05-04 19:09:54 | BOARDING | 0 | -14 |
| 2026-05-04 19:09:54 | FLAP 50% | 0 | -14 |
| 2026-05-04 19:13:57 | STB LIGHTS ON | 0 | -14 |
| 2026-05-04 19:13:59 | NAV LIGHTS ON | 0 | -14 |
| 2026-05-04 19:14:33 | STARTING ENGINE 1 | 0 | -14 |
| 2026-05-04 19:15:15 | STARTING ENGINE 2 | 0 | -14 |
| 2026-05-04 19:16:06 | TAXI LIGHTS ON | 0 | -14 |
| 2026-05-04 19:16:20 | TAXI TO THE RWY | 0 | -14 |
| 2026-05-04 19:17:55 | GEAR UP | 125 | 4 |
| 2026-05-04 19:17:59 | CLIMBING | 129 | 18 |
| 2026-05-04 19:17:59 | TAKE OFF TRANSPONDER NOT IN C MODE | 129 | 18 |
| 2026-05-04 19:18:01 | FLAP 0% | 132 | 40 |
| 2026-05-04 19:18:06 | AP ENGAGED | 139 | 143 |
| 2026-05-04 19:18:11 | CRUISE | 142 | 219 |
| 2026-05-04 19:18:24 | CLIMBING | 165 | 303 |
| 2026-05-04 19:21:29 | CRUISE | 170 | 2979 |
| 2026-05-04 19:43:38 | DESCEND | 99 | 2982 |
| 2026-05-04 19:44:51 | FLAP 50% | 131 | 2255 |
| 2026-05-04 19:44:58 | GEAR DOWN | 136 | 2187 |
| 2026-05-04 19:46:22 | AP DISENGAGED | 143 | 1290 |
| 2026-05-04 19:48:27 | LANDED AIRPORT [TDCF] | 88 | 36 |
| 2026-05-04 19:48:27 | LANDED - VS: -86 ft/min | 87 | 36 |
| 2026-05-04 19:48:40 | TAXI TO THE GATE | 26 | 36 |
| 2026-05-04 19:50:52 | AT THE GATE | 0 | 36 |
| 2026-05-04 19:51:30 | STOPPING ENGINE 1 | 0 | 36 |
| 2026-05-04 19:51:45 | STOPPING ENGINE 2 | 0 | 36 |
| 2026-05-04 19:51:47 | TAXI LIGHTS OFF | 0 | 36 |
| 2026-05-04 19:51:48 | LND LIGHTS OFF | 0 | 36 |
| 2026-05-04 19:51:55 | BCN LIGHTS OFF | 0 | 36 |
| 2026-05-04 19:51:55 | FLIGHT FINISHED | 0 | 36 |
| DATE | IAS | GS | ALTITUDE | FUEL USED | OAT | Flight Phase |
|---|---|---|---|---|---|---|
| 2026-05-04 19:11:54 | 0 | 0 | -14 | -10 | 30 | BOARDING |
| 2026-05-04 19:12:55 | 0 | 0 | -14 | -10 | 30 | BOARDING |
| 2026-05-04 19:13:56 | 0 | 0 | -14 | -10 | 30 | BOARDING |
| 2026-05-04 19:14:57 | 0 | 0 | -14 | -10 | 30 | BOARDING |
| 2026-05-04 19:15:58 | 0 | 0 | -14 | -10 | 30 | BOARDING |
| 2026-05-04 19:16:59 | 0 | 0 | -15 | -10 | 30 | BOARDING |
| 2026-05-04 19:18:00 | 130 | 120 | 23 | -9 | 30 | TAXI TO THE RWY |
| 2026-05-04 19:19:01 | 160 | 172 | 824 | -7 | 27 | CLIMBING |
| 2026-05-04 19:20:02 | 176 | 182 | 1713 | -5 | 23 | CLIMBING |
| 2026-05-04 19:21:02 | 171 | 181 | 2612 | -3 | 20 | CLIMBING |
| 2026-05-04 19:22:03 | 184 | 197 | 3000 | -1 | 19 | CLIMBING |
| 2026-05-04 19:23:04 | 184 | 198 | 3007 | 0 | 19 | CRUISE |
| 2026-05-04 19:24:05 | 172 | 184 | 3000 | 1 | 19 | CRUISE |
| 2026-05-04 19:25:06 | 165 | 194 | 2993 | 2 | 19 | CRUISE |
| 2026-05-04 19:26:07 | 160 | 185 | 2997 | 3 | 19 | CRUISE |
| 2026-05-04 19:27:08 | 159 | 181 | 3008 | 4 | 20 | CRUISE |
| 2026-05-04 19:28:09 | 155 | 180 | 3002 | 5 | 20 | CRUISE |
| 2026-05-04 19:29:10 | 155 | 178 | 3001 | 6 | 20 | CRUISE |
| 2026-05-04 19:30:10 | 159 | 183 | 3000 | 8 | 20 | CRUISE |
| 2026-05-04 19:31:11 | 161 | 186 | 3008 | 9 | 20 | CRUISE |
| 2026-05-04 19:32:12 | 163 | 188 | 3007 | 10 | 20 | CRUISE |
| 2026-05-04 19:33:13 | 164 | 193 | 3008 | 11 | 20 | CRUISE |
| 2026-05-04 19:34:14 | 169 | 195 | 3010 | 12 | 20 | CRUISE |
| 2026-05-04 19:35:15 | 180 | 206 | 3011 | 14 | 20 | CRUISE |
| 2026-05-04 19:36:16 | 184 | 213 | 3007 | 15 | 20 | CRUISE |
| 2026-05-04 19:37:17 | 145 | 172 | 2988 | 16 | 20 | CRUISE |
| 2026-05-04 19:38:18 | 133 | 144 | 2991 | 17 | 20 | CRUISE |
| 2026-05-04 19:39:19 | 136 | 141 | 3000 | 18 | 20 | CRUISE |
| 2026-05-04 19:40:20 | 138 | 140 | 3003 | 19 | 20 | CRUISE |
| 2026-05-04 19:41:21 | 113 | 116 | 2991 | 19 | 20 | CRUISE |
| 2026-05-04 19:42:22 | 104 | 107 | 2991 | 20 | 20 | CRUISE |
| 2026-05-04 19:43:22 | 98 | 103 | 2990 | 20 | 20 | CRUISE |
| 2026-05-04 19:44:23 | 123 | 127 | 2535 | 20 | 22 | CRUISE |
| 2026-05-04 19:45:24 | 141 | 142 | 1927 | 21 | 23 | DESCEND |
| 2026-05-04 19:46:25 | 143 | 143 | 1253 | 22 | 25 | DESCEND |
| 2026-05-04 19:47:26 | 143 | 137 | 341 | 23 | 28 | DESCEND |
| 2026-05-04 19:48:27 | 88 | 87 | 36 | 24 | 28 | DESCEND |
| 2026-05-04 19:49:27 | 1 | 15 | 36 | 24 | 28 | LANDED - VS: -86 ft/min |
| 2026-05-04 19:50:28 | 0 | 5 | 35 | 25 | 28 | TAXI TO THE GATE |
| 2026-05-04 19:51:29 | 0 | 0 | 36 | 25 | 28 | TAXI TO THE GATE |
| 2026-05-04 19:58:30 | 0 | 0 | 36 | -11 | 28 | AT THE GATE |